sensor_id;sensor_type;location;lat;lon;timestamp;temperature;humidity
20345;DHT22;10330;48.816;9.278;2023-06-24T00:01:37;18.90;99.90
20345;DHT22;10330;48.816;9.278;2023-06-24T00:04:07;18.80;99.90
20345;DHT22;10330;48.816;9.278;2023-06-24T00:06:34;18.80;99.90
20345;DHT22;10330;48.816;9.278;2023-06-24T00:09:00;18.80;99.90
20345;DHT22;10330;48.816;9.278;2023-06-24T00:11:30;18.70;99.90
20345;DHT22;10330;48.816;9.278;2023-06-24T00:13:57;18.70;99.90
20345;DHT22;10330;48.816;9.278;2023-06-24T00:16:24;18.60;99.90
20345;DHT22;10330;48.816;9.278;2023-06-24T00:18:55;18.60;99.90
20345;DHT22;10330;48.816;9.278;2023-06-24T00:21:27;18.50;99.90
20345;DHT22;10330;48.816;9.278;2023-06-24T00:23:57;18.60;99.90
20345;DHT22;10330;48.816;9.278;2023-06-24T00:26:27;18.60;99.90
20345;DHT22;10330;48.816;9.278;2023-06-24T00:28:53;18.60;99.90
20345;DHT22;10330;48.816;9.278;2023-06-24T00:31:22;18.70;99.90
20345;DHT22;10330;48.816;9.278;2023-06-24T00:33:49;18.60;99.90
20345;DHT22;10330;48.816;9.278;2023-06-24T00:36:16;18.60;99.90
20345;DHT22;10330;48.816;9.278;2023-06-24T00:38:45;18.50;99.90
20345;DHT22;10330;48.816;9.278;2023-06-24T00:41:11;18.50;99.90
20345;DHT22;10330;48.816;9.278;2023-06-24T00:43:37;18.40;99.90
20345;DHT22;10330;48.816;9.278;2023-06-24T00:46:05;18.40;99.90
20345;DHT22;10330;48.816;9.278;2023-06-24T00:48:32;18.40;99.90
20345;DHT22;10330;48.816;9.278;2023-06-24T00:50:58;18.30;99.90
20345;DHT22;10330;48.816;9.278;2023-06-24T00:53:26;18.20;99.90
20345;DHT22;10330;48.816;9.278;2023-06-24T00:55:57;18.20;99.90
20345;DHT22;10330;48.816;9.278;2023-06-24T00:58:32;18.20;99.90
20345;DHT22;10330;48.816;9.278;2023-06-24T01:01:00;18.10;99.90
20345;DHT22;10330;48.816;9.278;2023-06-24T01:03:27;18.20;99.90
20345;DHT22;10330;48.816;9.278;2023-06-24T01:05:55;18.10;99.90
20345;DHT22;10330;48.816;9.278;2023-06-24T01:08:21;18.00;99.90
20345;DHT22;10330;48.816;9.278;2023-06-24T01:10:50;18.00;99.90
20345;DHT22;10330;48.816;9.278;2023-06-24T01:13:19;18.00;99.90
20345;DHT22;10330;48.816;9.278;2023-06-24T01:15:46;18.00;99.90
20345;DHT22;10330;48.816;9.278;2023-06-24T01:18:21;18.00;99.90
20345;DHT22;10330;48.816;9.278;2023-06-24T01:20:55;17.90;99.90
20345;DHT22;10330;48.816;9.278;2023-06-24T01:23:58;17.80;99.90
20345;DHT22;10330;48.816;9.278;2023-06-24T01:29:56;17.90;99.90
20345;DHT22;10330;48.816;9.278;2023-06-24T01:32:35;17.90;99.90
20345;DHT22;10330;48.816;9.278;2023-06-24T01:35:16;17.80;99.90
20345;DHT22;10330;48.816;9.278;2023-06-24T01:37:59;17.80;99.90
20345;DHT22;10330;48.816;9.278;2023-06-24T01:40:27;17.90;99.90
20345;DHT22;10330;48.816;9.278;2023-06-24T01:42:57;17.80;99.90
20345;DHT22;10330;48.816;9.278;2023-06-24T01:45:41;17.70;99.90
20345;DHT22;10330;48.816;9.278;2023-06-24T01:48:13;17.80;99.90
20345;DHT22;10330;48.816;9.278;2023-06-24T01:50:44;17.70;99.90
20345;DHT22;10330;48.816;9.278;2023-06-24T01:53:11;17.70;99.90
20345;DHT22;10330;48.816;9.278;2023-06-24T01:55:41;17.70;99.90
20345;DHT22;10330;48.816;9.278;2023-06-24T01:58:08;17.60;99.90
20345;DHT22;10330;48.816;9.278;2023-06-24T02:00:38;17.60;99.90
20345;DHT22;10330;48.816;9.278;2023-06-24T02:03:05;17.70;99.90
20345;DHT22;10330;48.816;9.278;2023-06-24T02:05:33;17.60;99.90
20345;DHT22;10330;48.816;9.278;2023-06-24T02:08:07;17.60;99.90
20345;DHT22;10330;48.816;9.278;2023-06-24T02:10:37;17.60;99.90
20345;DHT22;10330;48.816;9.278;2023-06-24T02:13:05;17.60;99.90
20345;DHT22;10330;48.816;9.278;2023-06-24T02:15:33;17.50;99.90
20345;DHT22;10330;48.816;9.278;2023-06-24T02:18:07;17.50;99.90
20345;DHT22;10330;48.816;9.278;2023-06-24T02:20:36;17.40;99.90
20345;DHT22;10330;48.816;9.278;2023-06-24T02:23:07;17.40;99.90
20345;DHT22;10330;48.816;9.278;2023-06-24T02:25:34;17.40;99.90
20345;DHT22;10330;48.816;9.278;2023-06-24T02:28:02;17.40;99.90
20345;DHT22;10330;48.816;9.278;2023-06-24T02:30:29;17.30;99.90
20345;DHT22;10330;48.816;9.278;2023-06-24T02:32:55;17.30;99.90
20345;DHT22;10330;48.816;9.278;2023-06-24T02:35:23;17.30;99.90
20345;DHT22;10330;48.816;9.278;2023-06-24T02:37:49;17.20;99.90
20345;DHT22;10330;48.816;9.278;2023-06-24T02:40:16;17.20;99.90
20345;DHT22;10330;48.816;9.278;2023-06-24T02:42:43;17.20;99.90
20345;DHT22;10330;48.816;9.278;2023-06-24T02:45:09;17.10;99.90
20345;DHT22;10330;48.816;9.278;2023-06-24T02:47:36;17.10;99.90
20345;DHT22;10330;48.816;9.278;2023-06-24T02:50:05;17.00;99.90
20345;DHT22;10330;48.816;9.278;2023-06-24T02:52:33;17.00;99.90
20345;DHT22;10330;48.816;9.278;2023-06-24T02:55:00;17.00;99.90
20345;DHT22;10330;48.816;9.278;2023-06-24T02:57:59;17.00;99.90
20345;DHT22;10330;48.816;9.278;2023-06-24T03:00:41;16.90;99.90
20345;DHT22;10330;48.816;9.278;2023-06-24T03:03:07;16.90;99.90
20345;DHT22;10330;48.816;9.278;2023-06-24T03:05:37;16.90;99.90
20345;DHT22;10330;48.816;9.278;2023-06-24T03:08:05;17.00;99.90
20345;DHT22;10330;48.816;9.278;2023-06-24T03:10:38;16.90;99.90
20345;DHT22;10330;48.816;9.278;2023-06-24T03:13:08;16.90;99.90
20345;DHT22;10330;48.816;9.278;2023-06-24T03:15:42;16.90;99.90
20345;DHT22;10330;48.816;9.278;2023-06-24T03:18:09;16.90;99.90
20345;DHT22;10330;48.816;9.278;2023-06-24T03:20:35;16.90;99.90
20345;DHT22;10330;48.816;9.278;2023-06-24T03:23:07;16.90;99.90
20345;DHT22;10330;48.816;9.278;2023-06-24T03:25:35;16.90;99.90
20345;DHT22;10330;48.816;9.278;2023-06-24T03:28:02;16.90;99.90
20345;DHT22;10330;48.816;9.278;2023-06-24T03:30:33;16.80;99.90
20345;DHT22;10330;48.816;9.278;2023-06-24T03:32:59;16.80;99.90
20345;DHT22;10330;48.816;9.278;2023-06-24T03:35:25;16.80;99.90
20345;DHT22;10330;48.816;9.278;2023-06-24T03:37:55;16.80;99.90
20345;DHT22;10330;48.816;9.278;2023-06-24T03:40:21;16.80;99.90
20345;DHT22;10330;48.816;9.278;2023-06-24T03:42:48;16.80;99.90
20345;DHT22;10330;48.816;9.278;2023-06-24T03:45:14;16.80;99.90
20345;DHT22;10330;48.816;9.278;2023-06-24T03:47:41;16.70;99.90
20345;DHT22;10330;48.816;9.278;2023-06-24T03:50:08;16.70;99.90
20345;DHT22;10330;48.816;9.278;2023-06-24T03:52:34;16.70;99.90
20345;DHT22;10330;48.816;9.278;2023-06-24T03:55:00;16.80;99.90
20345;DHT22;10330;48.816;9.278;2023-06-24T03:57:29;16.80;99.90
20345;DHT22;10330;48.816;9.278;2023-06-24T03:59:56;16.80;99.90
20345;DHT22;10330;48.816;9.278;2023-06-24T04:02:22;16.80;99.90
20345;DHT22;10330;48.816;9.278;2023-06-24T04:04:49;16.90;99.90
20345;DHT22;10330;48.816;9.278;2023-06-24T04:07:19;16.90;99.90
20345;DHT22;10330;48.816;9.278;2023-06-24T04:09:55;17.00;99.90
20345;DHT22;10330;48.816;9.278;2023-06-24T04:12:22;17.00;99.90
20345;DHT22;10330;48.816;9.278;2023-06-24T04:14:49;17.00;99.90
20345;DHT22;10330;48.816;9.278;2023-06-24T04:19:52;17.00;99.90
20345;DHT22;10330;48.816;9.278;2023-06-24T04:22:18;17.10;99.90
20345;DHT22;10330;48.816;9.278;2023-06-24T04:24:45;17.20;99.90
20345;DHT22;10330;48.816;9.278;2023-06-24T04:27:11;17.20;99.90
20345;DHT22;10330;48.816;9.278;2023-06-24T04:29:38;17.20;99.90
20345;DHT22;10330;48.816;9.278;2023-06-24T04:32:07;17.20;99.90
20345;DHT22;10330;48.816;9.278;2023-06-24T04:34:36;17.30;99.90
20345;DHT22;10330;48.816;9.278;2023-06-24T04:37:03;17.30;99.90
20345;DHT22;10330;48.816;9.278;2023-06-24T04:39:29;17.20;99.90
20345;DHT22;10330;48.816;9.278;2023-06-24T04:41:56;17.10;99.90
20345;DHT22;10330;48.816;9.278;2023-06-24T04:44:22;17.10;99.90
20345;DHT22;10330;48.816;9.278;2023-06-24T04:46:48;17.00;99.90
20345;DHT22;10330;48.816;9.278;2023-06-24T04:49:18;17.00;99.90
20345;DHT22;10330;48.816;9.278;2023-06-24T04:51:44;17.10;99.90
20345;DHT22;10330;48.816;9.278;2023-06-24T04:54:11;17.20;99.90
20345;DHT22;10330;48.816;9.278;2023-06-24T04:56:39;17.20;99.90
20345;DHT22;10330;48.816;9.278;2023-06-24T04:59:06;17.30;99.90
20345;DHT22;10330;48.816;9.278;2023-06-24T05:01:34;17.30;99.90
20345;DHT22;10330;48.816;9.278;2023-06-24T05:04:01;17.40;99.90
20345;DHT22;10330;48.816;9.278;2023-06-24T05:06:27;17.50;99.90
20345;DHT22;10330;48.816;9.278;2023-06-24T05:08:53;17.50;99.90
20345;DHT22;10330;48.816;9.278;2023-06-24T05:11:20;17.50;99.90
20345;DHT22;10330;48.816;9.278;2023-06-24T05:13:46;17.50;99.90
20345;DHT22;10330;48.816;9.278;2023-06-24T05:16:12;17.60;99.90
20345;DHT22;10330;48.816;9.278;2023-06-24T05:18:39;17.60;99.90
20345;DHT22;10330;48.816;9.278;2023-06-24T05:21:05;17.70;99.90
20345;DHT22;10330;48.816;9.278;2023-06-24T05:23:31;17.80;99.90
20345;DHT22;10330;48.816;9.278;2023-06-24T05:25:58;17.90;99.90
20345;DHT22;10330;48.816;9.278;2023-06-24T05:28:24;18.00;99.90
20345;DHT22;10330;48.816;9.278;2023-06-24T05:30:50;18.10;99.90
20345;DHT22;10330;48.816;9.278;2023-06-24T05:33:16;18.00;99.90
20345;DHT22;10330;48.816;9.278;2023-06-24T05:35:43;18.10;99.90
20345;DHT22;10330;48.816;9.278;2023-06-24T05:38:10;18.20;99.90
20345;DHT22;10330;48.816;9.278;2023-06-24T05:40:36;18.30;99.90
20345;DHT22;10330;48.816;9.278;2023-06-24T05:43:02;18.40;99.90
20345;DHT22;10330;48.816;9.278;2023-06-24T05:45:29;18.50;99.90
20345;DHT22;10330;48.816;9.278;2023-06-24T05:47:56;18.60;99.90
20345;DHT22;10330;48.816;9.278;2023-06-24T05:50:23;18.60;99.90
20345;DHT22;10330;48.816;9.278;2023-06-24T05:52:49;18.70;99.90
20345;DHT22;10330;48.816;9.278;2023-06-24T05:55:16;18.80;99.90
20345;DHT22;10330;48.816;9.278;2023-06-24T05:57:42;18.80;99.90
20345;DHT22;10330;48.816;9.278;2023-06-24T06:00:09;18.80;99.90
20345;DHT22;10330;48.816;9.278;2023-06-24T06:02:38;18.90;99.90
20345;DHT22;10330;48.816;9.278;2023-06-24T06:05:05;18.90;99.90
20345;DHT22;10330;48.816;9.278;2023-06-24T06:07:31;18.90;99.90
20345;DHT22;10330;48.816;9.278;2023-06-24T06:09:57;18.90;99.90
20345;DHT22;10330;48.816;9.278;2023-06-24T06:12:24;19.00;99.90
20345;DHT22;10330;48.816;9.278;2023-06-24T06:14:53;19.00;99.90
20345;DHT22;10330;48.816;9.278;2023-06-24T06:17:20;19.20;99.90
20345;DHT22;10330;48.816;9.278;2023-06-24T06:19:46;19.20;99.90
20345;DHT22;10330;48.816;9.278;2023-06-24T06:22:13;19.30;99.90
20345;DHT22;10330;48.816;9.278;2023-06-24T06:24:41;19.40;99.90
20345;DHT22;10330;48.816;9.278;2023-06-24T06:27:10;19.50;99.90
20345;DHT22;10330;48.816;9.278;2023-06-24T06:32:47;19.40;99.90
20345;DHT22;10330;48.816;9.278;2023-06-24T06:38:35;19.50;99.90
20345;DHT22;10330;48.816;9.278;2023-06-24T06:41:01;19.50;99.90
20345;DHT22;10330;48.816;9.278;2023-06-24T06:43:27;19.50;99.90
20345;DHT22;10330;48.816;9.278;2023-06-24T06:46:24;19.70;99.90
20345;DHT22;10330;48.816;9.278;2023-06-24T06:49:24;19.70;99.90
20345;DHT22;10330;48.816;9.278;2023-06-24T06:51:53;19.90;99.90
20345;DHT22;10330;48.816;9.278;2023-06-24T06:54:20;20.00;99.90
20345;DHT22;10330;48.816;9.278;2023-06-24T06:56:46;20.10;99.90
20345;DHT22;10330;48.816;9.278;2023-06-24T06:59:12;20.10;99.90
20345;DHT22;10330;48.816;9.278;2023-06-24T07:01:39;20.10;99.90
20345;DHT22;10330;48.816;9.278;2023-06-24T07:04:07;20.20;99.90
20345;DHT22;10330;48.816;9.278;2023-06-24T07:06:44;20.30;99.90
20345;DHT22;10330;48.816;9.278;2023-06-24T07:09:20;20.40;99.90
20345;DHT22;10330;48.816;9.278;2023-06-24T07:11:54;20.40;99.90
20345;DHT22;10330;48.816;9.278;2023-06-24T07:14:38;20.50;99.90
20345;DHT22;10330;48.816;9.278;2023-06-24T07:20:29;20.50;99.90
20345;DHT22;10330;48.816;9.278;2023-06-24T07:22:56;20.50;99.90
20345;DHT22;10330;48.816;9.278;2023-06-24T07:25:22;20.60;99.90
20345;DHT22;10330;48.816;9.278;2023-06-24T07:27:48;20.70;99.90
20345;DHT22;10330;48.816;9.278;2023-06-24T07:30:15;20.80;99.90
20345;DHT22;10330;48.816;9.278;2023-06-24T07:32:41;21.00;99.90
20345;DHT22;10330;48.816;9.278;2023-06-24T07:35:18;21.00;99.90
20345;DHT22;10330;48.816;9.278;2023-06-24T07:37:45;21.10;99.90
20345;DHT22;10330;48.816;9.278;2023-06-24T07:40:11;21.10;99.90
20345;DHT22;10330;48.816;9.278;2023-06-24T07:42:38;21.20;99.90
20345;DHT22;10330;48.816;9.278;2023-06-24T07:45:05;21.30;99.90
20345;DHT22;10330;48.816;9.278;2023-06-24T07:47:31;21.30;99.90
20345;DHT22;10330;48.816;9.278;2023-06-24T07:50:01;21.40;99.90
20345;DHT22;10330;48.816;9.278;2023-06-24T07:52:35;21.50;99.90
20345;DHT22;10330;48.816;9.278;2023-06-24T07:55:01;21.60;99.90
20345;DHT22;10330;48.816;9.278;2023-06-24T07:57:27;21.60;99.90
20345;DHT22;10330;48.816;9.278;2023-06-24T07:59:54;21.70;99.90
20345;DHT22;10330;48.816;9.278;2023-06-24T08:02:21;21.70;99.90
20345;DHT22;10330;48.816;9.278;2023-06-24T08:04:52;21.80;99.90
20345;DHT22;10330;48.816;9.278;2023-06-24T08:07:28;21.80;99.90
20345;DHT22;10330;48.816;9.278;2023-06-24T08:10:00;21.80;99.90
20345;DHT22;10330;48.816;9.278;2023-06-24T08:12:27;21.80;99.90
20345;DHT22;10330;48.816;9.278;2023-06-24T08:14:57;22.00;99.90
20345;DHT22;10330;48.816;9.278;2023-06-24T08:17:24;22.00;99.90
20345;DHT22;10330;48.816;9.278;2023-06-24T08:19:50;22.10;99.90
20345;DHT22;10330;48.816;9.278;2023-06-24T08:26:01;22.20;99.90
20345;DHT22;10330;48.816;9.278;2023-06-24T08:34:56;22.50;99.90
20345;DHT22;10330;48.816;9.278;2023-06-24T08:37:23;22.50;99.90
20345;DHT22;10330;48.816;9.278;2023-06-24T08:39:49;22.60;99.90
20345;DHT22;10330;48.816;9.278;2023-06-24T08:42:15;22.70;99.90
20345;DHT22;10330;48.816;9.278;2023-06-24T08:44:41;22.80;99.90
20345;DHT22;10330;48.816;9.278;2023-06-24T08:47:07;22.80;99.90
20345;DHT22;10330;48.816;9.278;2023-06-24T08:49:40;22.90;99.90
20345;DHT22;10330;48.816;9.278;2023-06-24T08:52:14;23.00;99.90
20345;DHT22;10330;48.816;9.278;2023-06-24T08:54:45;23.00;99.90
20345;DHT22;10330;48.816;9.278;2023-06-24T08:57:12;23.20;99.90
20345;DHT22;10330;48.816;9.278;2023-06-24T08:59:41;23.20;99.90
20345;DHT22;10330;48.816;9.278;2023-06-24T09:02:07;23.30;99.90
20345;DHT22;10330;48.816;9.278;2023-06-24T09:04:34;23.60;99.90
20345;DHT22;10330;48.816;9.278;2023-06-24T09:07:00;23.50;99.90
20345;DHT22;10330;48.816;9.278;2023-06-24T09:09:26;23.60;99.90
20345;DHT22;10330;48.816;9.278;2023-06-24T09:11:56;23.70;99.90
20345;DHT22;10330;48.816;9.278;2023-06-24T09:14:24;23.80;99.90
20345;DHT22;10330;48.816;9.278;2023-06-24T09:16:58;23.80;99.90
20345;DHT22;10330;48.816;9.278;2023-06-24T09:19:25;23.80;99.90
20345;DHT22;10330;48.816;9.278;2023-06-24T09:22:02;23.70;99.90
20345;DHT22;10330;48.816;9.278;2023-06-24T09:24:33;23.80;99.90
20345;DHT22;10330;48.816;9.278;2023-06-24T09:27:00;23.90;99.90
20345;DHT22;10330;48.816;9.278;2023-06-24T09:29:27;24.10;99.90
20345;DHT22;10330;48.816;9.278;2023-06-24T09:31:54;24.20;99.90
20345;DHT22;10330;48.816;9.278;2023-06-24T09:34:23;24.30;99.90
20345;DHT22;10330;48.816;9.278;2023-06-24T09:36:54;24.40;99.90
20345;DHT22;10330;48.816;9.278;2023-06-24T09:39:20;24.50;99.90
20345;DHT22;10330;48.816;9.278;2023-06-24T09:42:00;24.50;99.90
20345;DHT22;10330;48.816;9.278;2023-06-24T09:44:28;24.40;99.90
20345;DHT22;10330;48.816;9.278;2023-06-24T09:46:55;24.30;99.90
20345;DHT22;10330;48.816;9.278;2023-06-24T09:49:25;24.40;99.90
20345;DHT22;10330;48.816;9.278;2023-06-24T09:51:56;24.50;99.90
20345;DHT22;10330;48.816;9.278;2023-06-24T09:54:26;24.40;99.90
20345;DHT22;10330;48.816;9.278;2023-06-24T10:00:41;24.40;99.90
20345;DHT22;10330;48.816;9.278;2023-06-24T10:03:08;24.60;99.90
20345;DHT22;10330;48.816;9.278;2023-06-24T10:05:35;24.60;99.90
20345;DHT22;10330;48.816;9.278;2023-06-24T10:08:04;24.70;99.90
20345;DHT22;10330;48.816;9.278;2023-06-24T10:10:31;24.80;99.90
20345;DHT22;10330;48.816;9.278;2023-06-24T10:12:58;24.90;99.90
20345;DHT22;10330;48.816;9.278;2023-06-24T10:15:24;25.00;99.90
20345;DHT22;10330;48.816;9.278;2023-06-24T10:17:51;25.00;99.90
20345;DHT22;10330;48.816;9.278;2023-06-24T10:20:24;25.10;99.90
20345;DHT22;10330;48.816;9.278;2023-06-24T10:22:53;25.10;99.90
20345;DHT22;10330;48.816;9.278;2023-06-24T10:25:20;25.20;99.90
20345;DHT22;10330;48.816;9.278;2023-06-24T10:27:53;25.20;99.90
20345;DHT22;10330;48.816;9.278;2023-06-24T10:30:20;25.20;99.90
20345;DHT22;10330;48.816;9.278;2023-06-24T10:32:51;25.20;99.90
20345;DHT22;10330;48.816;9.278;2023-06-24T10:37:56;25.30;99.90
20345;DHT22;10330;48.816;9.278;2023-06-24T10:40:41;25.30;99.90
20345;DHT22;10330;48.816;9.278;2023-06-24T10:45:54;25.20;99.90
20345;DHT22;10330;48.816;9.278;2023-06-24T10:48:21;25.20;99.90
20345;DHT22;10330;48.816;9.278;2023-06-24T10:50:48;25.20;99.90
20345;DHT22;10330;48.816;9.278;2023-06-24T10:53:15;25.20;99.90
20345;DHT22;10330;48.816;9.278;2023-06-24T10:55:44;25.30;99.90
20345;DHT22;10330;48.816;9.278;2023-06-24T10:58:13;25.60;99.90
20345;DHT22;10330;48.816;9.278;2023-06-24T11:00:41;25.80;99.90
20345;DHT22;10330;48.816;9.278;2023-06-24T11:03:10;25.90;99.90
20345;DHT22;10330;48.816;9.278;2023-06-24T11:05:39;26.00;99.90
20345;DHT22;10330;48.816;9.278;2023-06-24T11:08:06;25.90;99.90
20345;DHT22;10330;48.816;9.278;2023-06-24T11:10:32;25.90;99.90
20345;DHT22;10330;48.816;9.278;2023-06-24T11:13:05;26.00;99.90
20345;DHT22;10330;48.816;9.278;2023-06-24T11:15:32;26.20;99.90
20345;DHT22;10330;48.816;9.278;2023-06-24T11:17:58;26.40;99.90
20345;DHT22;10330;48.816;9.278;2023-06-24T11:20:24;26.50;99.90
20345;DHT22;10330;48.816;9.278;2023-06-24T11:22:50;26.60;99.90
20345;DHT22;10330;48.816;9.278;2023-06-24T11:25:19;26.70;99.90
20345;DHT22;10330;48.816;9.278;2023-06-24T11:27:45;26.70;99.90
20345;DHT22;10330;48.816;9.278;2023-06-24T11:30:12;26.60;99.90
20345;DHT22;10330;48.816;9.278;2023-06-24T11:32:40;26.50;99.90
20345;DHT22;10330;48.816;9.278;2023-06-24T11:35:09;26.60;99.90
20345;DHT22;10330;48.816;9.278;2023-06-24T11:37:36;26.60;99.90
20345;DHT22;10330;48.816;9.278;2023-06-24T11:42:32;26.90;99.90
20345;DHT22;10330;48.816;9.278;2023-06-24T11:45:03;27.10;99.90
20345;DHT22;10330;48.816;9.278;2023-06-24T11:47:33;27.10;99.90
20345;DHT22;10330;48.816;9.278;2023-06-24T11:50:00;27.30;99.90
20345;DHT22;10330;48.816;9.278;2023-06-24T11:52:46;27.60;99.90
20345;DHT22;10330;48.816;9.278;2023-06-24T11:57:56;28.00;99.90
20345;DHT22;10330;48.816;9.278;2023-06-24T12:00:27;28.30;99.90
20345;DHT22;10330;48.816;9.278;2023-06-24T12:02:57;28.50;95.80
20345;DHT22;10330;48.816;9.278;2023-06-24T12:05:26;28.70;97.20
20345;DHT22;10330;48.816;9.278;2023-06-24T12:08:02;28.90;97.10
20345;DHT22;10330;48.816;9.278;2023-06-24T12:10:29;29.00;96.40
20345;DHT22;10330;48.816;9.278;2023-06-24T12:12:56;29.30;95.20
20345;DHT22;10330;48.816;9.278;2023-06-24T12:15:24;29.60;94.40
20345;DHT22;10330;48.816;9.278;2023-06-24T12:17:50;30.00;94.90
20345;DHT22;10330;48.816;9.278;2023-06-24T12:20:16;30.10;94.40
20345;DHT22;10330;48.816;9.278;2023-06-24T12:22:44;30.40;92.80
20345;DHT22;10330;48.816;9.278;2023-06-24T12:25:11;30.50;92.00
20345;DHT22;10330;48.816;9.278;2023-06-24T12:27:38;30.90;91.70
20345;DHT22;10330;48.816;9.278;2023-06-24T12:30:07;31.30;90.80
20345;DHT22;10330;48.816;9.278;2023-06-24T12:32:33;31.50;89.70
20345;DHT22;10330;48.816;9.278;2023-06-24T12:34:59;31.90;88.80
20345;DHT22;10330;48.816;9.278;2023-06-24T12:37:28;32.60;90.10
20345;DHT22;10330;48.816;9.278;2023-06-24T12:39:54;33.10;89.20
20345;DHT22;10330;48.816;9.278;2023-06-24T12:42:20;33.60;84.60
20345;DHT22;10330;48.816;9.278;2023-06-24T12:44:46;33.70;82.20
20345;DHT22;10330;48.816;9.278;2023-06-24T12:47:13;33.90;81.60
20345;DHT22;10330;48.816;9.278;2023-06-24T12:49:39;34.10;77.50
20345;DHT22;10330;48.816;9.278;2023-06-24T12:52:05;34.40;76.30
20345;DHT22;10330;48.816;9.278;2023-06-24T12:54:31;34.50;76.20
20345;DHT22;10330;48.816;9.278;2023-06-24T12:56:57;34.60;75.40
20345;DHT22;10330;48.816;9.278;2023-06-24T12:59:23;34.60;74.80
20345;DHT22;10330;48.816;9.278;2023-06-24T13:01:50;34.20;74.50
20345;DHT22;10330;48.816;9.278;2023-06-24T13:04:16;34.30;73.80
20345;DHT22;10330;48.816;9.278;2023-06-24T13:06:44;34.40;74.50
20345;DHT22;10330;48.816;9.278;2023-06-24T13:09:10;34.60;72.10
20345;DHT22;10330;48.816;9.278;2023-06-24T13:11:36;34.60;72.80
20345;DHT22;10330;48.816;9.278;2023-06-24T13:14:03;34.70;73.80
20345;DHT22;10330;48.816;9.278;2023-06-24T13:16:31;34.70;70.00
20345;DHT22;10330;48.816;9.278;2023-06-24T13:18:58;34.30;69.80
20345;DHT22;10330;48.816;9.278;2023-06-24T13:21:24;34.60;71.30
20345;DHT22;10330;48.816;9.278;2023-06-24T13:23:51;34.90;71.60
20345;DHT22;10330;48.816;9.278;2023-06-24T13:26:17;35.20;69.60
20345;DHT22;10330;48.816;9.278;2023-06-24T13:28:43;34.60;70.10
20345;DHT22;10330;48.816;9.278;2023-06-24T13:31:09;33.60;67.30
20345;DHT22;10330;48.816;9.278;2023-06-24T13:33:36;32.90;70.20
20345;DHT22;10330;48.816;9.278;2023-06-24T13:36:02;33.20;69.50
20345;DHT22;10330;48.816;9.278;2023-06-24T13:38:28;33.80;70.90
20345;DHT22;10330;48.816;9.278;2023-06-24T13:40:54;34.40;70.10
20345;DHT22;10330;48.816;9.278;2023-06-24T13:43:20;34.60;68.20
20345;DHT22;10330;48.816;9.278;2023-06-24T13:45:47;35.10;67.90
20345;DHT22;10330;48.816;9.278;2023-06-24T13:48:13;35.40;65.10
20345;DHT22;10330;48.816;9.278;2023-06-24T13:50:40;35.80;66.90
20345;DHT22;10330;48.816;9.278;2023-06-24T13:53:06;35.60;66.10
20345;DHT22;10330;48.816;9.278;2023-06-24T13:55:32;35.90;66.10
20345;DHT22;10330;48.816;9.278;2023-06-24T13:57:58;36.20;65.70
20345;DHT22;10330;48.816;9.278;2023-06-24T14:00:24;36.00;63.50
20345;DHT22;10330;48.816;9.278;2023-06-24T14:02:51;35.90;62.60
20345;DHT22;10330;48.816;9.278;2023-06-24T14:05:17;36.30;62.90
20345;DHT22;10330;48.816;9.278;2023-06-24T14:07:43;36.50;62.80
20345;DHT22;10330;48.816;9.278;2023-06-24T14:10:10;37.00;63.20
20345;DHT22;10330;48.816;9.278;2023-06-24T14:12:36;37.20;60.10
20345;DHT22;10330;48.816;9.278;2023-06-24T14:15:04;37.40;61.00
20345;DHT22;10330;48.816;9.278;2023-06-24T14:17:30;37.30;59.90
20345;DHT22;10330;48.816;9.278;2023-06-24T14:19:56;37.60;61.10
20345;DHT22;10330;48.816;9.278;2023-06-24T14:22:22;38.00;60.00
20345;DHT22;10330;48.816;9.278;2023-06-24T14:24:50;38.20;56.50
20345;DHT22;10330;48.816;9.278;2023-06-24T14:27:16;37.80;55.80
20345;DHT22;10330;48.816;9.278;2023-06-24T14:29:42;37.30;56.30
20345;DHT22;10330;48.816;9.278;2023-06-24T14:32:08;37.10;55.60
20345;DHT22;10330;48.816;9.278;2023-06-24T14:34:34;37.30;57.60
20345;DHT22;10330;48.816;9.278;2023-06-24T14:37:01;37.60;59.00
20345;DHT22;10330;48.816;9.278;2023-06-24T14:39:28;37.80;58.70
20345;DHT22;10330;48.816;9.278;2023-06-24T14:41:54;38.00;58.50
20345;DHT22;10330;48.816;9.278;2023-06-24T14:44:20;38.20;58.30
20345;DHT22;10330;48.816;9.278;2023-06-24T14:46:46;38.10;56.40
20345;DHT22;10330;48.816;9.278;2023-06-24T14:49:12;37.80;57.00
20345;DHT22;10330;48.816;9.278;2023-06-24T14:51:38;38.00;56.80
20345;DHT22;10330;48.816;9.278;2023-06-24T14:54:05;38.20;56.70
20345;DHT22;10330;48.816;9.278;2023-06-24T14:56:31;38.00;55.90
20345;DHT22;10330;48.816;9.278;2023-06-24T14:58:57;37.90;56.00
20345;DHT22;10330;48.816;9.278;2023-06-24T15:01:23;38.10;56.20
20345;DHT22;10330;48.816;9.278;2023-06-24T15:03:49;38.60;56.30
20345;DHT22;10330;48.816;9.278;2023-06-24T15:06:15;38.60;55.10
20345;DHT22;10330;48.816;9.278;2023-06-24T15:08:41;38.60;54.40
20345;DHT22;10330;48.816;9.278;2023-06-24T15:11:08;38.40;54.20
20345;DHT22;10330;48.816;9.278;2023-06-24T15:13:34;38.60;55.10
20345;DHT22;10330;48.816;9.278;2023-06-24T15:16:00;38.80;55.30
20345;DHT22;10330;48.816;9.278;2023-06-24T15:18:26;38.90;54.90
20345;DHT22;10330;48.816;9.278;2023-06-24T15:20:52;38.80;55.90
20345;DHT22;10330;48.816;9.278;2023-06-24T15:23:20;38.50;55.40
20345;DHT22;10330;48.816;9.278;2023-06-24T15:25:46;37.90;55.40
20345;DHT22;10330;48.816;9.278;2023-06-24T15:28:12;37.20;57.10
20345;DHT22;10330;48.816;9.278;2023-06-24T15:30:38;36.60;56.00
20345;DHT22;10330;48.816;9.278;2023-06-24T15:33:04;36.20;57.00
20345;DHT22;10330;48.816;9.278;2023-06-24T15:35:30;36.00;57.80
20345;DHT22;10330;48.816;9.278;2023-06-24T15:37:57;35.90;58.20
20345;DHT22;10330;48.816;9.278;2023-06-24T15:40:23;35.80;57.50
20345;DHT22;10330;48.816;9.278;2023-06-24T15:42:49;35.70;57.70
20345;DHT22;10330;48.816;9.278;2023-06-24T15:45:15;35.70;58.40
20345;DHT22;10330;48.816;9.278;2023-06-24T15:47:41;35.90;57.30
20345;DHT22;10330;48.816;9.278;2023-06-24T15:50:08;36.10;57.00
20345;DHT22;10330;48.816;9.278;2023-06-24T15:52:35;36.50;57.00
20345;DHT22;10330;48.816;9.278;2023-06-24T15:55:01;36.60;56.20
20345;DHT22;10330;48.816;9.278;2023-06-24T15:57:28;36.90;56.50
20345;DHT22;10330;48.816;9.278;2023-06-24T15:59:54;37.20;56.10
20345;DHT22;10330;48.816;9.278;2023-06-24T16:02:20;37.50;55.80
20345;DHT22;10330;48.816;9.278;2023-06-24T16:04:46;37.80;56.30
20345;DHT22;10330;48.816;9.278;2023-06-24T16:07:12;37.90;54.20
20345;DHT22;10330;48.816;9.278;2023-06-24T16:09:38;37.70;54.90
20345;DHT22;10330;48.816;9.278;2023-06-24T16:12:05;37.70;54.30
20345;DHT22;10330;48.816;9.278;2023-06-24T16:14:33;37.80;54.90
20345;DHT22;10330;48.816;9.278;2023-06-24T16:16:59;38.00;54.30